createdAt,value
2022-12-04T00:00:10.659Z,101.90
2022-12-04T00:02:37.639Z,103.32
2022-12-04T00:05:06.110Z,104.90
2022-12-04T00:07:33.399Z,98.95
2022-12-04T00:10:00.777Z,99.55
2022-12-04T00:12:27.602Z,107.95
2022-12-04T00:17:41.809Z,112.32
2022-12-04T00:20:09.170Z,109.93
2022-12-04T00:22:36.009Z,109.38
2022-12-04T00:25:02.816Z,109.93
2022-12-04T00:27:29.689Z,104.38
2022-12-04T00:29:56.720Z,109.53
2022-12-04T00:32:23.679Z,109.28
2022-12-04T00:34:53.158Z,113.43
2022-12-04T00:37:19.970Z,110.97
2022-12-04T00:39:46.713Z,114.10
2022-12-04T00:42:13.573Z,110.95
2022-12-04T00:44:40.362Z,105.35
2022-12-04T00:47:07.128Z,116.45
2022-12-04T00:49:34.011Z,114.47
2022-12-04T00:52:00.783Z,114.28
2022-12-04T00:54:27.551Z,102.15
2022-12-04T00:56:54.276Z,104.47
2022-12-04T00:59:21.071Z,110.03
2022-12-04T01:01:47.851Z,112.20
2022-12-04T01:04:14.645Z,111.28
2022-12-04T01:06:41.458Z,110.40
2022-12-04T01:09:08.405Z,107.20
2022-12-04T01:11:35.448Z,109.75
2022-12-04T01:14:02.235Z,113.68
2022-12-04T01:16:32.864Z,119.68
2022-12-04T01:19:00.380Z,110.55
2022-12-04T01:21:27.456Z,120.68
2022-12-04T01:23:54.501Z,117.18
2022-12-04T01:26:21.332Z,111.95
2022-12-04T01:28:48.182Z,121.78
2022-12-04T01:31:17.465Z,121.03
2022-12-04T01:33:45.153Z,119.03
2022-12-04T01:36:18.106Z,122.53
2022-12-04T01:38:45.492Z,114.05
2022-12-04T01:41:14.014Z,122.78
2022-12-04T01:43:41.867Z,123.72
2022-12-04T01:46:09.036Z,116.25
2022-12-04T01:48:41.501Z,117.53
2022-12-04T01:51:18.642Z,127.95
2022-12-04T01:53:54.180Z,117.70
2022-12-04T01:56:25.743Z,128.20
2022-12-04T01:58:59.335Z,125.95
2022-12-04T02:01:29.492Z,124.43
2022-12-04T02:03:57.173Z,125.53
2022-12-04T02:06:24.055Z,132.23
2022-12-04T02:08:50.904Z,128.45
2022-12-04T02:11:32.602Z,133.05
2022-12-04T02:14:38.050Z,126.78
2022-12-04T02:17:27.536Z,123.38
2022-12-04T02:20:38.730Z,134.23
2022-12-04T02:23:22.983Z,123.97
2022-12-04T02:26:06.313Z,131.85
2022-12-04T02:28:45.458Z,141.80
2022-12-04T02:31:18.283Z,133.48
2022-12-04T02:34:20.388Z,136.20
2022-12-04T02:36:59.237Z,129.98
2022-12-04T02:39:37.832Z,138.23
2022-12-04T02:42:19.376Z,134.80
2022-12-04T02:45:00.400Z,138.52
2022-12-04T02:47:28.006Z,128.65
2022-12-04T02:49:59.263Z,134.65
2022-12-04T02:52:39.445Z,133.40
2022-12-04T02:55:12.267Z,137.95
2022-12-04T02:57:44.165Z,133.13
2022-12-04T03:00:11.779Z,139.65
2022-12-04T03:02:47.185Z,105.25
2022-12-04T03:05:18.240Z,132.77
2022-12-04T03:07:47.348Z,132.57
2022-12-04T03:10:18.313Z,133.80
2022-12-04T03:12:54.085Z,133.32
2022-12-04T03:15:30.313Z,128.43
2022-12-04T03:18:09.591Z,125.57
2022-12-04T03:20:38.508Z,124.82
2022-12-04T03:23:13.664Z,131.10
2022-12-04T03:26:01.000Z,122.78
2022-12-04T03:28:46.620Z,133.88
2022-12-04T03:31:17.379Z,133.98
2022-12-04T03:33:47.727Z,133.07
2022-12-04T03:36:21.704Z,133.38
2022-12-04T03:39:05.802Z,130.10
2022-12-04T03:42:04.887Z,137.18
2022-12-04T03:44:44.101Z,131.95
2022-12-04T03:47:18.545Z,134.52
2022-12-04T03:50:03.276Z,132.45
2022-12-04T03:52:34.693Z,134.93
2022-12-04T03:55:15.272Z,142.50
2022-12-04T03:57:45.963Z,131.48
2022-12-04T04:00:22.529Z,134.27
2022-12-04T04:02:59.138Z,140.45
2022-12-04T04:05:31.219Z,134.32
2022-12-04T04:08:21.646Z,135.48
2022-12-04T04:10:50.834Z,140.02
2022-12-04T04:13:51.320Z,143.98
2022-12-04T04:16:39.765Z,138.13
2022-12-04T04:19:27.716Z,145.10
2022-12-04T04:22:13.906Z,133.25
2022-12-04T04:24:45.760Z,151.35
2022-12-04T04:27:13.084Z,134.48
2022-12-04T04:29:41.199Z,151.23
2022-12-04T04:34:37.647Z,139.75
2022-12-04T04:37:19.404Z,143.77
2022-12-04T04:39:56.860Z,145.82
2022-12-04T04:42:34.878Z,146.65
2022-12-04T04:45:11.636Z,144.80
2022-12-04T04:47:47.682Z,143.95
2022-12-04T04:50:16.693Z,142.70
2022-12-04T04:52:48.983Z,131.10
2022-12-04T04:55:17.716Z,136.95
2022-12-04T04:57:44.490Z,142.82
2022-12-04T05:00:15.011Z,130.32
2022-12-04T05:02:42.698Z,145.57
2022-12-04T05:05:10.170Z,140.85
2022-12-04T05:07:37.008Z,135.15
2022-12-04T05:10:04.717Z,143.48
2022-12-04T05:12:31.932Z,146.77
2022-12-04T05:14:58.825Z,135.93
2022-12-04T05:17:25.585Z,140.93
2022-12-04T05:19:56.995Z,138.73
2022-12-04T05:22:25.990Z,147.18
2022-12-04T05:24:53.415Z,139.63
2022-12-04T05:27:21.115Z,123.75
2022-12-04T05:29:47.947Z,141.77
2022-12-04T05:32:14.907Z,137.38
2022-12-04T05:34:41.751Z,143.85
2022-12-04T05:37:08.554Z,138.07
2022-12-04T05:39:35.656Z,132.57
2022-12-04T05:42:02.525Z,147.85
2022-12-04T05:44:29.338Z,151.10
2022-12-04T05:46:56.317Z,135.98
2022-12-04T05:49:23.219Z,132.32
2022-12-04T05:51:51.339Z,144.60
2022-12-04T05:56:46.318Z,141.82
2022-12-04T05:59:13.414Z,144.35
2022-12-04T06:01:40.662Z,139.57
2022-12-04T06:04:07.749Z,141.23
2022-12-04T06:06:34.954Z,104.72
2022-12-04T06:09:02.306Z,150.10
2022-12-04T06:11:35.046Z,115.20
2022-12-04T06:14:03.658Z,142.70
2022-12-04T06:16:39.461Z,139.45
2022-12-04T06:19:09.424Z,144.32
2022-12-04T06:21:38.900Z,140.60
2022-12-04T06:24:06.878Z,141.18
2022-12-04T06:26:34.386Z,148.55
2022-12-04T06:29:01.228Z,138.57
2022-12-04T06:31:29.917Z,138.65
2022-12-04T06:33:57.894Z,145.95
2022-12-04T06:36:24.980Z,141.63
2022-12-04T06:38:56.323Z,138.77
2022-12-04T06:41:23.658Z,137.55
2022-12-04T06:43:51.784Z,137.98
2022-12-04T06:46:22.125Z,148.30
2022-12-04T06:48:50.035Z,145.38
2022-12-04T06:51:19.725Z,136.00
2022-12-04T06:53:47.136Z,141.43
2022-12-04T06:56:18.124Z,139.73
2022-12-04T06:58:46.202Z,143.68
2022-12-04T07:06:23.476Z,137.95
2022-12-04T07:08:54.155Z,141.35
2022-12-04T07:11:22.164Z,147.63
2022-12-04T07:13:49.993Z,138.82
2022-12-04T07:16:19.032Z,136.40
2022-12-04T07:18:46.569Z,136.43
2022-12-04T07:21:18.778Z,139.07
2022-12-04T07:23:48.626Z,136.70
2022-12-04T07:26:15.414Z,130.95
2022-12-04T07:28:42.221Z,140.48
2022-12-04T07:31:11.860Z,139.45
2022-12-04T07:33:39.125Z,134.23
2022-12-04T07:36:08.611Z,138.50
2022-12-04T07:38:35.682Z,136.90
2022-12-04T07:41:04.528Z,145.10
2022-12-04T07:43:32.067Z,129.55
2022-12-04T07:45:59.826Z,150.50
2022-12-04T07:48:32.976Z,140.85
2022-12-04T07:51:15.429Z,147.02
2022-12-04T07:53:42.673Z,148.70
2022-12-04T07:56:10.720Z,142.23
2022-12-04T08:01:13.202Z,130.48
2022-12-04T08:03:47.170Z,132.55
2022-12-04T08:06:15.457Z,149.75
2022-12-04T08:08:42.294Z,139.48
2022-12-04T08:11:11.562Z,130.63
2022-12-04T08:13:38.631Z,129.88
2022-12-04T08:16:07.741Z,131.15
2022-12-04T08:18:35.019Z,129.90
2022-12-04T08:21:09.531Z,130.90
2022-12-04T08:23:36.733Z,126.63
2022-12-04T08:26:04.654Z,126.63
2022-12-04T08:28:32.265Z,130.18
2022-12-04T08:31:07.142Z,130.30
2022-12-04T08:33:34.477Z,130.02
2022-12-04T08:36:01.880Z,122.47
2022-12-04T08:38:28.653Z,132.85
2022-12-04T08:41:01.042Z,131.60
2022-12-04T08:43:28.239Z,126.75
2022-12-04T08:46:02.839Z,123.77
2022-12-04T08:48:30.260Z,126.05
2022-12-04T08:50:57.478Z,130.35
2022-12-04T08:53:24.642Z,126.83
2022-12-04T08:55:52.418Z,130.80
2022-12-04T08:58:20.190Z,124.03
2022-12-04T09:00:47.605Z,121.10
2022-12-04T09:03:16.538Z,133.27
2022-12-04T09:05:45.863Z,127.28
2022-12-04T09:08:14.517Z,120.75
2022-12-04T09:10:42.050Z,117.65
2022-12-04T09:13:09.336Z,124.00
2022-12-04T09:15:39.628Z,127.10
2022-12-04T09:18:07.111Z,114.78
2022-12-04T09:20:33.885Z,124.03
2022-12-04T09:23:04.749Z,118.80
2022-12-04T09:25:35.488Z,128.07
2022-12-04T09:28:02.257Z,123.18
2022-12-04T09:30:29.093Z,118.15
2022-12-04T09:32:56.114Z,125.82
2022-12-04T09:35:22.907Z,117.78
2022-12-04T09:37:49.640Z,120.03
2022-12-04T09:40:35.162Z,121.57
2022-12-04T09:43:40.573Z,120.65
2022-12-04T09:46:17.080Z,118.25
2022-12-04T09:48:48.416Z,126.20
2022-12-04T09:51:19.385Z,114.15
2022-12-04T09:54:00.401Z,122.38
2022-12-04T09:56:31.165Z,113.80
2022-12-04T09:59:22.105Z,122.05
2022-12-04T10:01:55.451Z,119.40
2022-12-04T10:04:22.762Z,115.45
2022-12-04T10:07:04.849Z,112.22
2022-12-04T10:09:44.932Z,110.18
2022-12-04T10:12:53.472Z,123.00
2022-12-04T10:15:32.691Z,120.05
2022-12-04T10:18:24.105Z,115.03
2022-12-04T10:21:12.888Z,114.30
2022-12-04T10:23:57.751Z,115.68
2022-12-04T10:26:30.705Z,110.28
2022-12-04T10:29:02.471Z,121.07
2022-12-04T10:31:32.386Z,113.30
2022-12-04T10:34:06.717Z,115.85
2022-12-04T10:36:35.242Z,114.47
2022-12-04T10:39:22.008Z,104.13
2022-12-04T10:42:31.396Z,110.72
2022-12-04T10:44:58.410Z,107.00
2022-12-04T10:47:25.662Z,113.45
2022-12-04T10:50:23.003Z,112.90
2022-12-04T10:52:50.245Z,114.18
2022-12-04T10:55:29.493Z,121.68
2022-12-04T10:57:56.452Z,108.82
2022-12-04T11:00:31.279Z,103.55
2022-12-04T11:03:02.890Z,107.50
2022-12-04T11:05:38.484Z,109.30
2022-12-04T11:08:07.596Z,99.43
2022-12-04T11:10:43.147Z,109.00
2022-12-04T11:13:12.935Z,98.82
2022-12-04T11:15:48.546Z,116.00
2022-12-04T11:18:20.966Z,110.80
2022-12-04T11:20:53.718Z,103.90
2022-12-04T11:23:20.998Z,101.18
2022-12-04T11:25:52.038Z,102.80
2022-12-04T11:28:40.771Z,98.82
2022-12-04T11:31:11.166Z,101.13
2022-12-04T11:33:44.856Z,100.45
2022-12-04T11:36:26.385Z,102.28
2022-12-04T11:39:04.208Z,104.47
2022-12-04T11:41:32.201Z,97.63
2022-12-04T11:44:00.736Z,102.28
2022-12-04T11:46:32.237Z,100.07
2022-12-04T11:48:59.284Z,91.50
2022-12-04T11:51:44.857Z,103.20
2022-12-04T11:54:24.332Z,96.07
2022-12-04T11:57:07.067Z,96.60
2022-12-04T11:59:58.725Z,97.75
2022-12-04T12:02:28.777Z,90.65
2022-12-04T12:05:19.533Z,93.70
2022-12-04T12:07:51.904Z,98.68
2022-12-04T12:10:38.891Z,92.40
2022-12-04T12:13:09.949Z,93.60
2022-12-04T12:15:51.842Z,91.43
2022-12-04T12:19:00.355Z,94.22
2022-12-04T12:22:00.652Z,85.18
2022-12-04T12:24:36.775Z,95.35
2022-12-04T12:27:31.436Z,92.95
2022-12-04T12:30:06.436Z,92.57
2022-12-04T12:32:54.281Z,94.03
2022-12-04T12:38:06.715Z,93.80
2022-12-04T12:40:57.352Z,89.30
2022-12-04T12:43:33.583Z,85.70
2022-12-04T12:46:30.962Z,90.50
2022-12-04T12:49:09.078Z,85.75
2022-12-04T12:54:33.336Z,92.38
2022-12-04T12:57:19.978Z,82.22
2022-12-04T13:00:12.047Z,82.53
2022-12-04T13:03:03.705Z,82.43
2022-12-04T13:05:37.445Z,79.68
2022-12-04T13:08:27.637Z,88.40
2022-12-04T13:11:22.443Z,84.43
2022-12-04T13:14:02.359Z,85.25
2022-12-04T13:16:54.024Z,85.60
2022-12-04T13:19:36.034Z,80.85
2022-12-04T13:22:29.858Z,87.93
2022-12-04T13:25:34.249Z,88.30
2022-12-04T13:28:21.362Z,90.65
2022-12-04T13:30:57.081Z,79.82
2022-12-04T13:33:45.114Z,84.22
2022-12-04T13:36:54.428Z,88.47
2022-12-04T13:39:29.194Z,80.95
2022-12-04T13:42:02.776Z,80.18
2022-12-04T13:44:31.590Z,84.60
2022-12-04T13:47:05.068Z,82.90
2022-12-04T13:49:35.384Z,93.00
2022-12-04T13:52:05.352Z,83.43
2022-12-04T13:54:36.543Z,81.78
2022-12-04T13:57:20.874Z,88.30
2022-12-04T13:59:49.523Z,91.70
2022-12-04T14:02:30.391Z,84.45
2022-12-04T14:05:15.550Z,80.32
2022-12-04T14:08:07.543Z,87.47
2022-12-04T14:10:38.386Z,82.63
2022-12-04T14:13:25.694Z,83.38
2022-12-04T14:16:05.508Z,86.45
2022-12-04T14:18:32.869Z,85.82
2022-12-04T14:21:05.439Z,85.00
2022-12-04T14:23:40.735Z,82.75
2022-12-04T14:26:48.904Z,90.10
2022-12-04T14:29:41.738Z,86.25
2022-12-04T14:32:23.467Z,87.78
2022-12-04T14:34:50.882Z,90.15
2022-12-04T14:37:40.935Z,91.60
2022-12-04T14:40:16.253Z,85.25
2022-12-04T14:42:43.329Z,82.57
2022-12-04T14:45:34.225Z,87.88
2022-12-04T14:48:49.382Z,84.20
2022-12-04T14:51:41.664Z,90.53
2022-12-04T14:54:29.625Z,80.38
2022-12-04T14:57:22.510Z,89.15
2022-12-04T14:59:52.316Z,93.22
2022-12-04T15:02:21.794Z,93.45
2022-12-04T15:04:50.719Z,98.88
2022-12-04T15:07:20.243Z,92.63
2022-12-04T15:10:14.163Z,90.93
2022-12-04T15:12:54.577Z,100.60
2022-12-04T15:15:27.352Z,93.88
2022-12-04T15:18:20.331Z,89.47
2022-12-04T15:20:50.244Z,101.82
2022-12-04T15:23:49.327Z,96.32
2022-12-04T15:26:22.362Z,108.55
2022-12-04T15:28:52.817Z,106.13
2022-12-04T15:31:24.552Z,103.00
2022-12-04T15:33:56.737Z,103.00
2022-12-04T15:36:55.157Z,104.55
2022-12-04T15:39:25.885Z,107.40
2022-12-04T15:42:26.880Z,116.75
2022-12-04T15:45:22.731Z,107.15
2022-12-04T15:47:53.904Z,110.22
2022-12-04T15:50:22.344Z,108.63
2022-12-04T15:52:50.273Z,108.22
2022-12-04T15:55:19.076Z,136.13
2022-12-04T15:57:56.162Z,124.45
2022-12-04T16:00:34.889Z,122.13
2022-12-04T16:03:21.749Z,115.95
2022-12-04T16:05:48.783Z,119.53
2022-12-04T16:08:31.464Z,113.25
2022-12-04T16:11:22.773Z,122.45
2022-12-04T16:14:01.681Z,130.35
2022-12-04T16:16:28.866Z,127.72
2022-12-04T16:18:55.930Z,136.50
2022-12-04T16:21:29.474Z,130.20
2022-12-04T16:24:02.853Z,144.13
2022-12-04T16:26:29.727Z,130.13
2022-12-04T16:28:56.586Z,146.88
2022-12-04T16:31:24.561Z,135.02
2022-12-04T16:33:51.561Z,143.88
2022-12-04T16:36:18.468Z,146.43
2022-12-04T16:38:45.709Z,145.80
2022-12-04T16:41:17.368Z,139.38
2022-12-04T16:43:44.447Z,149.65
2022-12-04T16:46:16.565Z,146.70
2022-12-04T16:48:43.716Z,145.13
2022-12-04T16:51:16.716Z,145.33
2022-12-04T16:53:43.915Z,156.63
2022-12-04T16:56:10.758Z,156.30
2022-12-04T16:58:37.740Z,163.55
2022-12-04T17:01:06.357Z,160.40
2022-12-04T17:03:34.112Z,159.13
2022-12-04T17:06:01.490Z,159.70
2022-12-04T17:08:29.601Z,166.27
2022-12-04T17:13:23.398Z,173.85
2022-12-04T17:15:50.499Z,165.27
2022-12-04T17:18:21.094Z,180.18
2022-12-04T17:20:48.703Z,161.25
2022-12-04T17:25:53.850Z,166.02
2022-12-04T17:28:20.663Z,161.35
2022-12-04T17:30:47.506Z,175.32
2022-12-04T17:33:14.319Z,172.05
2022-12-04T17:35:43.438Z,157.82
2022-12-04T17:38:10.662Z,170.82
2022-12-04T17:40:37.759Z,169.90
2022-12-04T17:43:04.809Z,171.98
2022-12-04T17:45:31.541Z,173.25
2022-12-04T17:48:00.771Z,188.18
2022-12-04T17:50:27.576Z,177.80
2022-12-04T17:52:54.464Z,184.07
2022-12-04T17:55:21.625Z,189.75
2022-12-04T17:57:48.411Z,191.37
2022-12-04T18:00:15.552Z,188.85
2022-12-04T18:02:42.701Z,196.35
2022-12-04T18:05:10.093Z,194.83
2022-12-04T18:07:37.069Z,207.10
2022-12-04T18:10:04.249Z,194.27
2022-12-04T18:12:31.112Z,195.00
2022-12-04T18:14:57.881Z,200.93
2022-12-04T18:17:24.755Z,194.07
2022-12-04T18:19:51.670Z,220.10
2022-12-04T18:22:18.801Z,208.52
2022-12-04T18:24:45.871Z,196.02
2022-12-04T18:27:12.739Z,203.35
2022-12-04T18:29:42.478Z,210.15
2022-12-04T18:32:10.124Z,194.90
2022-12-04T18:34:51.434Z,212.00
2022-12-04T18:37:18.596Z,199.82
2022-12-04T18:39:45.372Z,202.80
2022-12-04T18:42:12.194Z,205.20
2022-12-04T18:44:39.210Z,212.00
2022-12-04T18:47:06.147Z,192.35
2022-12-04T18:49:33.059Z,202.40
2022-12-04T18:52:00.072Z,207.82
2022-12-04T18:54:26.890Z,201.70
2022-12-04T18:56:53.767Z,213.52
2022-12-04T18:59:25.721Z,201.30
2022-12-04T19:01:53.969Z,196.40
2022-12-04T19:04:23.131Z,202.98
2022-12-04T19:06:55.188Z,192.45
2022-12-04T19:09:54.322Z,199.40
2022-12-04T19:12:14.768Z,204.63
2022-12-04T19:14:41.621Z,196.95
2022-12-04T19:17:08.987Z,188.95
2022-12-04T19:19:35.953Z,190.05
2022-12-04T19:22:02.934Z,181.40
2022-12-04T19:24:29.872Z,189.15
2022-12-04T19:26:56.663Z,185.00
2022-12-04T19:29:23.547Z,182.82
2022-12-04T19:31:57.736Z,182.55
2022-12-04T19:34:26.433Z,185.18
2022-12-04T19:36:54.718Z,181.10
2022-12-04T19:39:21.882Z,178.23
2022-12-04T19:41:48.966Z,189.17
2022-12-04T19:44:47.280Z,187.00
2022-12-04T19:47:02.829Z,181.27
2022-12-04T19:49:29.815Z,178.13
2022-12-04T19:51:56.622Z,181.25
2022-12-04T19:54:24.433Z,189.15
2022-12-04T19:56:52.415Z,184.75
2022-12-04T19:59:20.454Z,176.93
2022-12-04T20:04:14.143Z,174.25
2022-12-04T20:06:43.949Z,177.20
2022-12-04T20:09:17.990Z,185.40
2022-12-04T20:11:44.934Z,186.10
2022-12-04T20:14:14.587Z,177.32
2022-12-04T20:16:42.485Z,188.23
2022-12-04T20:19:14.513Z,188.60
2022-12-04T20:21:41.953Z,186.63
2022-12-04T20:24:11.966Z,184.75
2022-12-04T20:26:40.666Z,190.40
2022-12-04T20:29:10.128Z,196.15
2022-12-04T20:31:39.224Z,182.00
2022-12-04T20:34:10.631Z,204.15
2022-12-04T20:36:40.081Z,185.15
2022-12-04T20:39:08.121Z,191.95
2022-12-04T20:41:36.171Z,188.60
2022-12-04T20:44:06.216Z,182.02
2022-12-04T20:46:35.873Z,185.25
2022-12-04T20:49:05.703Z,177.15
2022-12-04T20:51:35.876Z,183.57
2022-12-04T20:54:02.813Z,185.82
2022-12-04T20:56:33.023Z,192.00
2022-12-04T20:59:04.994Z,186.20
2022-12-04T21:01:33.349Z,199.38
2022-12-04T21:04:01.372Z,229.27
2022-12-04T21:06:34.847Z,192.18
2022-12-04T21:09:08.337Z,198.95
2022-12-04T21:11:41.182Z,189.05
2022-12-04T21:14:31.936Z,200.35
2022-12-04T21:16:58.769Z,181.60
2022-12-04T21:19:26.205Z,190.63
2022-12-04T21:21:54.013Z,186.88
2022-12-04T21:24:23.439Z,198.93
2022-12-04T21:26:50.334Z,193.18
2022-12-04T21:29:17.089Z,187.48
2022-12-04T21:31:45.105Z,208.32
2022-12-04T21:34:15.018Z,192.57
2022-12-04T21:36:41.900Z,190.98
2022-12-04T21:39:09.307Z,187.95
2022-12-04T21:41:54.679Z,187.07
2022-12-04T21:44:21.947Z,196.23
2022-12-04T21:46:49.805Z,191.00
2022-12-04T21:49:17.816Z,190.63
2022-12-04T21:52:00.551Z,195.95
2022-12-04T21:54:28.192Z,185.43
2022-12-04T21:56:55.802Z,190.57
2022-12-04T21:59:23.905Z,208.02
2022-12-04T22:01:51.283Z,191.13
2022-12-04T22:04:18.153Z,189.07
2022-12-04T22:06:45.087Z,202.50
2022-12-04T22:09:13.310Z,183.00
2022-12-04T22:11:43.677Z,203.95
2022-12-04T22:14:11.712Z,172.40
2022-12-04T22:16:42.468Z,194.40
2022-12-04T22:19:11.377Z,198.57
2022-12-04T22:24:05.765Z,186.18
2022-12-04T22:26:32.715Z,215.93
2022-12-04T22:28:59.866Z,194.98
2022-12-04T22:31:30.904Z,198.45
2022-12-04T22:34:00.493Z,204.38
2022-12-04T22:36:32.593Z,191.27
2022-12-04T22:39:15.480Z,198.88
2022-12-04T22:41:42.301Z,186.95
2022-12-04T22:44:09.099Z,183.52
2022-12-04T22:46:35.995Z,186.27
2022-12-04T22:49:02.992Z,202.68
2022-12-04T22:51:29.965Z,189.93
2022-12-04T22:53:58.337Z,229.73
2022-12-04T22:56:28.009Z,196.98
2022-12-04T22:58:55.258Z,196.30
2022-12-04T23:01:33.374Z,200.93
2022-12-04T23:04:01.526Z,204.50
2022-12-04T23:08:58.493Z,202.25
2022-12-04T23:11:26.262Z,203.68
2022-12-04T23:13:55.621Z,203.13
2022-12-04T23:16:24.095Z,210.75
2022-12-04T23:18:51.547Z,201.63
2022-12-04T23:21:20.099Z,199.98
2022-12-04T23:23:48.782Z,216.52
2022-12-04T23:26:18.180Z,209.45
2022-12-04T23:28:45.125Z,200.15
2022-12-04T23:31:12.781Z,199.30
2022-12-04T23:33:41.541Z,219.45
2022-12-04T23:36:10.274Z,224.23
2022-12-04T23:38:39.772Z,227.75
2022-12-04T23:41:30.383Z,222.77
2022-12-04T23:43:58.043Z,208.07
2022-12-04T23:46:32.206Z,219.82
2022-12-04T23:49:00.238Z,201.13
2022-12-04T23:51:27.582Z,214.43
2022-12-04T23:53:54.614Z,220.32
2022-12-04T23:56:24.229Z,221.85
2022-12-04T23:58:53.504Z,223.85
